sensor_id;sensor_type;location;lat;lon;timestamp;temperature;humidity
41944;DHT22;27636;52.610;13.244;2022-12-16T00:02:35;-7.90;99.90
41944;DHT22;27636;52.610;13.244;2022-12-16T00:07:38;-7.90;99.90
41944;DHT22;27636;52.610;13.244;2022-12-16T00:12:41;-8.00;99.90
41944;DHT22;27636;52.610;13.244;2022-12-16T00:17:46;-8.10;99.90
41944;DHT22;27636;52.610;13.244;2022-12-16T00:22:49;-8.10;99.90
41944;DHT22;27636;52.610;13.244;2022-12-16T00:27:53;-7.90;99.90
41944;DHT22;27636;52.610;13.244;2022-12-16T00:33:04;-8.00;99.90
41944;DHT22;27636;52.610;13.244;2022-12-16T00:38:08;-8.00;99.90
41944;DHT22;27636;52.610;13.244;2022-12-16T00:43:11;-8.20;99.90
41944;DHT22;27636;52.610;13.244;2022-12-16T00:48:16;-8.10;99.90
41944;DHT22;27636;52.610;13.244;2022-12-16T00:53:19;-8.00;99.90
41944;DHT22;27636;52.610;13.244;2022-12-16T00:58:22;-8.20;99.90
41944;DHT22;27636;52.610;13.244;2022-12-16T01:03:27;-8.00;99.90
41944;DHT22;27636;52.610;13.244;2022-12-16T01:08:31;-8.10;99.90
41944;DHT22;27636;52.610;13.244;2022-12-16T01:13:34;-8.20;99.90
41944;DHT22;27636;52.610;13.244;2022-12-16T01:18:39;-8.30;99.90
41944;DHT22;27636;52.610;13.244;2022-12-16T01:23:42;-8.30;99.90
41944;DHT22;27636;52.610;13.244;2022-12-16T01:28:47;-8.30;99.90
41944;DHT22;27636;52.610;13.244;2022-12-16T01:33:51;-8.30;99.90
41944;DHT22;27636;52.610;13.244;2022-12-16T01:38:55;-8.40;99.90
41944;DHT22;27636;52.610;13.244;2022-12-16T01:44:12;-8.40;99.90
41944;DHT22;27636;52.610;13.244;2022-12-16T01:49:22;-8.30;99.90
41944;DHT22;27636;52.610;13.244;2022-12-16T01:54:30;-8.30;99.90
41944;DHT22;27636;52.610;13.244;2022-12-16T01:59:38;-8.30;99.90
41944;DHT22;27636;52.610;13.244;2022-12-16T02:04:44;-8.30;99.90
41944;DHT22;27636;52.610;13.244;2022-12-16T02:10:13;-8.40;99.90
41944;DHT22;27636;52.610;13.244;2022-12-16T02:15:24;-8.50;99.90
41944;DHT22;27636;52.610;13.244;2022-12-16T02:21:06;-8.60;99.90
41944;DHT22;27636;52.610;13.244;2022-12-16T02:26:23;-8.40;99.90
41944;DHT22;27636;52.610;13.244;2022-12-16T02:31:36;-8.50;99.90
41944;DHT22;27636;52.610;13.244;2022-12-16T02:36:50;-8.60;99.90
41944;DHT22;27636;52.610;13.244;2022-12-16T02:42:00;-8.50;99.90
41944;DHT22;27636;52.610;13.244;2022-12-16T02:47:07;-8.50;99.90
41944;DHT22;27636;52.610;13.244;2022-12-16T02:52:11;-8.50;99.90
41944;DHT22;27636;52.610;13.244;2022-12-16T02:57:31;-8.50;99.90
41944;DHT22;27636;52.610;13.244;2022-12-16T03:02:42;-8.50;99.90
41944;DHT22;27636;52.610;13.244;2022-12-16T03:07:51;-8.60;99.90
41944;DHT22;27636;52.610;13.244;2022-12-16T03:12:57;-8.60;99.90
41944;DHT22;27636;52.610;13.244;2022-12-16T03:18:04;-8.60;99.90
41944;DHT22;27636;52.610;13.244;2022-12-16T03:23:12;-8.80;99.90
41944;DHT22;27636;52.610;13.244;2022-12-16T03:28:27;-8.60;99.90
41944;DHT22;27636;52.610;13.244;2022-12-16T03:33:38;-8.70;99.90
41944;DHT22;27636;52.610;13.244;2022-12-16T03:38:44;-8.80;99.90
41944;DHT22;27636;52.610;13.244;2022-12-16T03:43:47;-8.90;99.90
41944;DHT22;27636;52.610;13.244;2022-12-16T03:48:53;-8.80;99.90
41944;DHT22;27636;52.610;13.244;2022-12-16T03:53:56;-8.80;99.90
41944;DHT22;27636;52.610;13.244;2022-12-16T03:58:59;-9.00;99.90
41944;DHT22;27636;52.610;13.244;2022-12-16T04:04:04;-8.80;99.90
41944;DHT22;27636;52.610;13.244;2022-12-16T04:09:07;-8.80;99.90
41944;DHT22;27636;52.610;13.244;2022-12-16T04:14:10;-8.80;99.90
41944;DHT22;27636;52.610;13.244;2022-12-16T04:19:35;-8.70;99.90
41944;DHT22;27636;52.610;13.244;2022-12-16T04:25:03;-8.80;99.90
41944;DHT22;27636;52.610;13.244;2022-12-16T04:30:08;-8.80;99.90
41944;DHT22;27636;52.610;13.244;2022-12-16T04:35:25;-8.80;99.90
41944;DHT22;27636;52.610;13.244;2022-12-16T04:40:47;-8.90;99.90
41944;DHT22;27636;52.610;13.244;2022-12-16T04:46:09;-8.90;99.90
41944;DHT22;27636;52.610;13.244;2022-12-16T04:51:32;-8.80;99.90
41944;DHT22;27636;52.610;13.244;2022-12-16T04:56:54;-8.70;99.90
41944;DHT22;27636;52.610;13.244;2022-12-16T05:02:16;-8.90;99.90
41944;DHT22;27636;52.610;13.244;2022-12-16T05:07:39;-8.80;99.90
41944;DHT22;27636;52.610;13.244;2022-12-16T05:13:01;-8.80;99.90
41944;DHT22;27636;52.610;13.244;2022-12-16T05:18:23;-8.80;99.90
41944;DHT22;27636;52.610;13.244;2022-12-16T05:23:46;-8.80;99.90
41944;DHT22;27636;52.610;13.244;2022-12-16T05:29:08;-9.00;99.90
41944;DHT22;27636;52.610;13.244;2022-12-16T05:34:30;-9.20;99.90
41944;DHT22;27636;52.610;13.244;2022-12-16T05:39:53;-9.10;99.90
41944;DHT22;27636;52.610;13.244;2022-12-16T05:45:14;-9.20;99.90
41944;DHT22;27636;52.610;13.244;2022-12-16T05:50:43;-9.10;99.90
41944;DHT22;27636;52.610;13.244;2022-12-16T05:56:07;-9.10;99.90
41944;DHT22;27636;52.610;13.244;2022-12-16T06:01:29;-9.20;99.90
41944;DHT22;27636;52.610;13.244;2022-12-16T06:06:51;-9.20;99.90
41944;DHT22;27636;52.610;13.244;2022-12-16T06:12:14;-9.20;99.90
41944;DHT22;27636;52.610;13.244;2022-12-16T06:17:36;-9.30;99.90
41944;DHT22;27636;52.610;13.244;2022-12-16T06:22:57;-9.20;99.90
41944;DHT22;27636;52.610;13.244;2022-12-16T06:28:27;-9.20;99.90
41944;DHT22;27636;52.610;13.244;2022-12-16T06:33:56;-9.20;99.90
41944;DHT22;27636;52.610;13.244;2022-12-16T06:39:18;-9.20;99.90
41944;DHT22;27636;52.610;13.244;2022-12-16T06:44:41;-9.20;99.90
41944;DHT22;27636;52.610;13.244;2022-12-16T06:50:03;-9.30;99.90
41944;DHT22;27636;52.610;13.244;2022-12-16T06:55:25;-9.30;99.90
41944;DHT22;27636;52.610;13.244;2022-12-16T07:00:49;-9.20;99.90
41944;DHT22;27636;52.610;13.244;2022-12-16T07:06:11;-9.20;99.90
41944;DHT22;27636;52.610;13.244;2022-12-16T07:11:33;-9.40;99.90
41944;DHT22;27636;52.610;13.244;2022-12-16T07:16:56;-9.40;99.90
41944;DHT22;27636;52.610;13.244;2022-12-16T07:22:19;-9.30;99.90
41944;DHT22;27636;52.610;13.244;2022-12-16T07:27:44;-9.20;99.90
41944;DHT22;27636;52.610;13.244;2022-12-16T07:33:07;-9.30;99.90
41944;DHT22;27636;52.610;13.244;2022-12-16T07:38:29;-9.30;99.90
41944;DHT22;27636;52.610;13.244;2022-12-16T07:43:51;-9.20;99.90
41944;DHT22;27636;52.610;13.244;2022-12-16T07:49:14;-9.10;99.90
41944;DHT22;27636;52.610;13.244;2022-12-16T07:54:36;-9.00;99.90
41944;DHT22;27636;52.610;13.244;2022-12-16T07:59:58;-9.10;99.90
41944;DHT22;27636;52.610;13.244;2022-12-16T08:05:21;-8.80;99.90
41944;DHT22;27636;52.610;13.244;2022-12-16T08:10:43;-8.60;99.90
41944;DHT22;27636;52.610;13.244;2022-12-16T08:16:05;-8.40;99.90
41944;DHT22;27636;52.610;13.244;2022-12-16T08:21:29;-8.20;99.90
41944;DHT22;27636;52.610;13.244;2022-12-16T08:26:50;-7.80;99.90
41944;DHT22;27636;52.610;13.244;2022-12-16T08:32:13;-7.40;99.90
41944;DHT22;27636;52.610;13.244;2022-12-16T08:37:36;-7.00;99.90
41944;DHT22;27636;52.610;13.244;2022-12-16T08:42:58;-6.70;99.90
41944;DHT22;27636;52.610;13.244;2022-12-16T08:48:20;-6.50;99.90
41944;DHT22;27636;52.610;13.244;2022-12-16T08:53:43;-6.10;99.90
41944;DHT22;27636;52.610;13.244;2022-12-16T08:59:04;-5.90;99.90
41944;DHT22;27636;52.610;13.244;2022-12-16T09:04:26;-5.70;99.90
41944;DHT22;27636;52.610;13.244;2022-12-16T09:09:49;-5.40;99.90
41944;DHT22;27636;52.610;13.244;2022-12-16T09:15:11;-5.00;99.90
41944;DHT22;27636;52.610;13.244;2022-12-16T09:20:33;-4.80;99.90
41944;DHT22;27636;52.610;13.244;2022-12-16T09:25:59;-4.40;99.90
41944;DHT22;27636;52.610;13.244;2022-12-16T09:31:20;-4.10;99.90
41944;DHT22;27636;52.610;13.244;2022-12-16T09:36:42;-4.10;99.90
41944;DHT22;27636;52.610;13.244;2022-12-16T09:42:13;-3.80;99.90
41944;DHT22;27636;52.610;13.244;2022-12-16T09:47:41;-3.80;99.90
41944;DHT22;27636;52.610;13.244;2022-12-16T09:53:09;-3.60;99.90
41944;DHT22;27636;52.610;13.244;2022-12-16T09:58:38;-3.40;99.90
41944;DHT22;27636;52.610;13.244;2022-12-16T10:04:02;-3.40;99.90
41944;DHT22;27636;52.610;13.244;2022-12-16T10:09:28;-3.20;99.90
41944;DHT22;27636;52.610;13.244;2022-12-16T10:14:57;-3.10;99.90
41944;DHT22;27636;52.610;13.244;2022-12-16T10:20:31;-3.00;99.90
41944;DHT22;27636;52.610;13.244;2022-12-16T10:25:59;-3.00;99.90
41944;DHT22;27636;52.610;13.244;2022-12-16T10:31:24;-3.10;99.90
41944;DHT22;27636;52.610;13.244;2022-12-16T10:36:49;-2.90;99.90
41944;DHT22;27636;52.610;13.244;2022-12-16T10:42:20;-2.50;99.90
41944;DHT22;27636;52.610;13.244;2022-12-16T10:47:44;-2.30;99.90
41944;DHT22;27636;52.610;13.244;2022-12-16T10:53:12;-2.30;99.90
41944;DHT22;27636;52.610;13.244;2022-12-16T10:58:44;-2.30;99.90
41944;DHT22;27636;52.610;13.244;2022-12-16T11:04:29;-2.10;99.90
41944;DHT22;27636;52.610;13.244;2022-12-16T11:09:55;-2.60;99.90
41944;DHT22;27636;52.610;13.244;2022-12-16T11:15:26;-2.30;99.90
41944;DHT22;27636;52.610;13.244;2022-12-16T11:21:04;-2.20;99.90
41944;DHT22;27636;52.610;13.244;2022-12-16T11:26:25;-1.90;99.90
41944;DHT22;27636;52.610;13.244;2022-12-16T11:31:50;-1.80;99.90
41944;DHT22;27636;52.610;13.244;2022-12-16T11:37:15;-2.10;99.90
41944;DHT22;27636;52.610;13.244;2022-12-16T11:42:38;-2.00;99.90
41944;DHT22;27636;52.610;13.244;2022-12-16T11:48:15;-2.30;99.90
41944;DHT22;27636;52.610;13.244;2022-12-16T11:53:43;-2.30;99.90
41944;DHT22;27636;52.610;13.244;2022-12-16T11:59:14;-2.00;99.90
41944;DHT22;27636;52.610;13.244;2022-12-16T12:04:39;-1.60;99.90
41944;DHT22;27636;52.610;13.244;2022-12-16T12:10:10;-1.60;99.90
41944;DHT22;27636;52.610;13.244;2022-12-16T12:15:37;-1.70;99.90
41944;DHT22;27636;52.610;13.244;2022-12-16T12:21:07;-1.70;99.90
41944;DHT22;27636;52.610;13.244;2022-12-16T12:26:35;-1.60;99.90
41944;DHT22;27636;52.610;13.244;2022-12-16T12:32:17;-1.70;99.90
41944;DHT22;27636;52.610;13.244;2022-12-16T12:37:44;-1.60;99.90
41944;DHT22;27636;52.610;13.244;2022-12-16T12:43:18;-1.70;99.90
41944;DHT22;27636;52.610;13.244;2022-12-16T12:48:52;-1.70;99.90
41944;DHT22;27636;52.610;13.244;2022-12-16T12:54:22;-1.40;99.90
41944;DHT22;27636;52.610;13.244;2022-12-16T12:59:52;-1.40;99.90
41944;DHT22;27636;52.610;13.244;2022-12-16T13:05:17;-1.50;99.90
41944;DHT22;27636;52.610;13.244;2022-12-16T13:10:39;-1.70;99.90
41944;DHT22;27636;52.610;13.244;2022-12-16T13:16:10;-1.50;99.90
41944;DHT22;27636;52.610;13.244;2022-12-16T13:21:45;-1.60;99.90
41944;DHT22;27636;52.610;13.244;2022-12-16T13:27:12;-1.80;99.90
41944;DHT22;27636;52.610;13.244;2022-12-16T13:32:36;-2.00;99.90
41944;DHT22;27636;52.610;13.244;2022-12-16T13:38:01;-1.90;99.90
41944;DHT22;27636;52.610;13.244;2022-12-16T13:43:46;-1.90;99.90
41944;DHT22;27636;52.610;13.244;2022-12-16T13:49:39;-2.10;99.90
41944;DHT22;27636;52.610;13.244;2022-12-16T13:55:12;-2.10;99.90
41944;DHT22;27636;52.610;13.244;2022-12-16T14:00:37;-2.10;99.90
41944;DHT22;27636;52.610;13.244;2022-12-16T14:06:04;-2.40;99.90
41944;DHT22;27636;52.610;13.244;2022-12-16T14:11:35;-2.40;99.90
41944;DHT22;27636;52.610;13.244;2022-12-16T14:17:03;-2.30;99.90
41944;DHT22;27636;52.610;13.244;2022-12-16T14:22:42;-2.50;99.90
41944;DHT22;27636;52.610;13.244;2022-12-16T14:28:11;-2.50;99.90
41944;DHT22;27636;52.610;13.244;2022-12-16T14:33:40;-2.60;99.90
41944;DHT22;27636;52.610;13.244;2022-12-16T14:39:08;-2.60;99.90
41944;DHT22;27636;52.610;13.244;2022-12-16T14:44:31;-2.50;99.90
41944;DHT22;27636;52.610;13.244;2022-12-16T14:49:53;-2.60;99.90
41944;DHT22;27636;52.610;13.244;2022-12-16T14:55:18;-2.50;99.90
41944;DHT22;27636;52.610;13.244;2022-12-16T15:00:43;-2.70;99.90
41944;DHT22;27636;52.610;13.244;2022-12-16T15:11:47;-2.70;99.90
41944;DHT22;27636;52.610;13.244;2022-12-16T15:17:18;-2.70;99.90
41944;DHT22;27636;52.610;13.244;2022-12-16T15:22:43;-2.80;99.90
41944;DHT22;27636;52.610;13.244;2022-12-16T15:28:23;-2.80;99.90
41944;DHT22;27636;52.610;13.244;2022-12-16T15:33:45;-2.80;99.90
41944;DHT22;27636;52.610;13.244;2022-12-16T15:39:17;-2.80;99.90
41944;DHT22;27636;52.610;13.244;2022-12-16T15:44:47;-2.70;99.90
41944;DHT22;27636;52.610;13.244;2022-12-16T15:50:12;-2.80;99.90
41944;DHT22;27636;52.610;13.244;2022-12-16T15:55:36;-2.80;99.90
41944;DHT22;27636;52.610;13.244;2022-12-16T16:01:08;-2.90;99.90
41944;DHT22;27636;52.610;13.244;2022-12-16T16:06:31;-2.80;99.90
41944;DHT22;27636;52.610;13.244;2022-12-16T16:11:53;-2.80;99.90
41944;DHT22;27636;52.610;13.244;2022-12-16T16:17:33;-2.80;99.90
41944;DHT22;27636;52.610;13.244;2022-12-16T16:22:55;-2.90;99.90
41944;DHT22;27636;52.610;13.244;2022-12-16T16:28:18;-2.80;99.90
41944;DHT22;27636;52.610;13.244;2022-12-16T16:33:41;-2.80;99.90
41944;DHT22;27636;52.610;13.244;2022-12-16T16:39:03;-2.80;99.90
41944;DHT22;27636;52.610;13.244;2022-12-16T16:44:25;-2.60;99.90
41944;DHT22;27636;52.610;13.244;2022-12-16T16:49:48;-2.80;99.90
41944;DHT22;27636;52.610;13.244;2022-12-16T16:55:13;-2.70;99.90
41944;DHT22;27636;52.610;13.244;2022-12-16T17:00:35;-2.60;99.90
41944;DHT22;27636;52.610;13.244;2022-12-16T17:05:59;-2.60;99.90
41944;DHT22;27636;52.610;13.244;2022-12-16T17:11:24;-2.70;99.90
41944;DHT22;27636;52.610;13.244;2022-12-16T17:16:45;-2.70;99.90
41944;DHT22;27636;52.610;13.244;2022-12-16T17:22:09;-2.70;99.90
41944;DHT22;27636;52.610;13.244;2022-12-16T17:27:31;-2.80;99.90
41944;DHT22;27636;52.610;13.244;2022-12-16T17:32:53;-2.70;99.90
41944;DHT22;27636;52.610;13.244;2022-12-16T17:38:16;-2.80;99.90
41944;DHT22;27636;52.610;13.244;2022-12-16T17:43:38;-2.70;99.90
41944;DHT22;27636;52.610;13.244;2022-12-16T17:49:00;-2.80;99.90
41944;DHT22;27636;52.610;13.244;2022-12-16T17:54:23;-2.80;99.90
41944;DHT22;27636;52.610;13.244;2022-12-16T17:59:46;-2.70;99.90
41944;DHT22;27636;52.610;13.244;2022-12-16T18:05:14;-2.70;99.90
41944;DHT22;27636;52.610;13.244;2022-12-16T18:10:50;-2.70;99.90
41944;DHT22;27636;52.610;13.244;2022-12-16T18:16:12;-2.70;99.90
41944;DHT22;27636;52.610;13.244;2022-12-16T18:21:34;-2.80;99.90
41944;DHT22;27636;52.610;13.244;2022-12-16T18:26:57;-2.80;99.90
41944;DHT22;27636;52.610;13.244;2022-12-16T18:32:21;-2.70;99.90
41944;DHT22;27636;52.610;13.244;2022-12-16T18:37:43;-2.70;99.90
41944;DHT22;27636;52.610;13.244;2022-12-16T18:43:14;-2.70;99.90
41944;DHT22;27636;52.610;13.244;2022-12-16T18:48:36;-2.70;99.90
41944;DHT22;27636;52.610;13.244;2022-12-16T18:53:58;-2.80;99.90
41944;DHT22;27636;52.610;13.244;2022-12-16T18:59:21;-2.80;99.90
41944;DHT22;27636;52.610;13.244;2022-12-16T19:04:43;-2.60;99.90
41944;DHT22;27636;52.610;13.244;2022-12-16T19:10:06;-2.60;99.90
41944;DHT22;27636;52.610;13.244;2022-12-16T19:15:30;-2.60;99.90
41944;DHT22;27636;52.610;13.244;2022-12-16T19:20:52;-2.50;99.90
41944;DHT22;27636;52.610;13.244;2022-12-16T19:26:14;-2.40;99.90
41944;DHT22;27636;52.610;13.244;2022-12-16T19:31:38;-2.50;99.90
41944;DHT22;27636;52.610;13.244;2022-12-16T19:37:00;-2.40;99.90
41944;DHT22;27636;52.610;13.244;2022-12-16T19:42:23;-2.40;99.90
41944;DHT22;27636;52.610;13.244;2022-12-16T19:47:46;-2.50;99.90
41944;DHT22;27636;52.610;13.244;2022-12-16T19:53:08;-2.30;99.90
41944;DHT22;27636;52.610;13.244;2022-12-16T19:58:30;-2.50;99.90
41944;DHT22;27636;52.610;13.244;2022-12-16T20:03:55;-2.40;99.90
41944;DHT22;27636;52.610;13.244;2022-12-16T20:09:17;-2.40;99.90
41944;DHT22;27636;52.610;13.244;2022-12-16T20:14:38;-2.40;99.90
41944;DHT22;27636;52.610;13.244;2022-12-16T20:20:02;-2.40;99.90
41944;DHT22;27636;52.610;13.244;2022-12-16T20:25:25;-2.30;99.90
41944;DHT22;27636;52.610;13.244;2022-12-16T20:30:47;-2.20;99.90
41944;DHT22;27636;52.610;13.244;2022-12-16T20:36:10;-2.30;99.90
41944;DHT22;27636;52.610;13.244;2022-12-16T20:41:33;-2.20;99.90
41944;DHT22;27636;52.610;13.244;2022-12-16T20:46:58;-2.20;99.90
41944;DHT22;27636;52.610;13.244;2022-12-16T20:52:22;-2.20;99.90
41944;DHT22;27636;52.610;13.244;2022-12-16T20:57:44;-2.20;99.90
41944;DHT22;27636;52.610;13.244;2022-12-16T21:03:06;-2.20;99.90
41944;DHT22;27636;52.610;13.244;2022-12-16T21:08:30;-2.10;99.90
41944;DHT22;27636;52.610;13.244;2022-12-16T21:13:52;-2.10;99.90
41944;DHT22;27636;52.610;13.244;2022-12-16T21:19:16;-2.10;99.90
41944;DHT22;27636;52.610;13.244;2022-12-16T21:24:39;-2.00;99.90
41944;DHT22;27636;52.610;13.244;2022-12-16T21:30:02;-2.10;99.90
41944;DHT22;27636;52.610;13.244;2022-12-16T21:35:24;-2.10;99.90
41944;DHT22;27636;52.610;13.244;2022-12-16T21:40:51;-2.10;99.90
41944;DHT22;27636;52.610;13.244;2022-12-16T21:46:13;-2.10;99.90
41944;DHT22;27636;52.610;13.244;2022-12-16T21:51:35;-2.10;99.90
41944;DHT22;27636;52.610;13.244;2022-12-16T21:56:59;-2.00;99.90
41944;DHT22;27636;52.610;13.244;2022-12-16T22:02:22;-2.00;99.90
41944;DHT22;27636;52.610;13.244;2022-12-16T22:07:43;-2.00;99.90
41944;DHT22;27636;52.610;13.244;2022-12-16T22:13:07;-2.00;99.90
41944;DHT22;27636;52.610;13.244;2022-12-16T22:18:28;-2.00;99.90
41944;DHT22;27636;52.610;13.244;2022-12-16T22:23:50;-1.90;99.90
41944;DHT22;27636;52.610;13.244;2022-12-16T22:29:14;-1.90;99.90
41944;DHT22;27636;52.610;13.244;2022-12-16T22:34:38;-1.90;99.90
41944;DHT22;27636;52.610;13.244;2022-12-16T22:40:00;-2.00;99.90
41944;DHT22;27636;52.610;13.244;2022-12-16T22:45:23;-2.00;99.90
41944;DHT22;27636;52.610;13.244;2022-12-16T22:50:45;-1.90;99.90
41944;DHT22;27636;52.610;13.244;2022-12-16T22:56:07;-1.90;99.90
41944;DHT22;27636;52.610;13.244;2022-12-16T23:01:31;-1.80;99.90
41944;DHT22;27636;52.610;13.244;2022-12-16T23:06:54;-1.80;99.90
41944;DHT22;27636;52.610;13.244;2022-12-16T23:12:16;-1.80;99.90
41944;DHT22;27636;52.610;13.244;2022-12-16T23:17:39;-1.80;99.90
41944;DHT22;27636;52.610;13.244;2022-12-16T23:23:01;-1.80;99.90
41944;DHT22;27636;52.610;13.244;2022-12-16T23:28:22;-1.80;99.90
41944;DHT22;27636;52.610;13.244;2022-12-16T23:33:45;-1.80;99.90
41944;DHT22;27636;52.610;13.244;2022-12-16T23:39:07;-1.70;99.90
41944;DHT22;27636;52.610;13.244;2022-12-16T23:44:29;-1.70;99.90
41944;DHT22;27636;52.610;13.244;2022-12-16T23:49:59;-1.70;99.90
41944;DHT22;27636;52.610;13.244;2022-12-16T23:55:21;-1.70;99.90
